UAE11M OMDB-LSZH
Flight info
| Callsign | UAE11M |
|---|---|
| Flight time | N/A |
| Altitude | 37000 |
| Route | ANVIX L223 TARDI N629 BOTAM Y855 LAKLU/N0489F360 Q204 NALKI G652 TOKRA DCT ALROK DCT BOSOB/N0490F380 DCT ITRUX Y511 PMA Z712 WEJ L677 CVO L617 TANSA UL613 AMAXI/N0484F400 UL613 XANIS DCT DIMIS DCT VRANA DCT ELTIB DCT NEMEK DCT ADOMO DCT GIMIX DCT ERKIR DCT KPT L856 NEGRA |
| Aircraft | A388/J-SADE2E3FGHIJ3J4J5M1RWXY/LB1D1 |
Departure
| Time | 2026-05-05 07:16 |
|---|---|
| Airport | Dubai International Airport (OMDB) |
Arrival
| Time | N/A |
|---|---|
| Airport | Zürich Airport (LSZH) |
| Time | Latitude | Longitude | Altitude | Speed | Heading |
|---|---|---|---|---|---|
| 2026-05-05 06:50 | 25.24924 | 55.35832 | 26 ft | 0 kts | 31° |
| 2026-05-05 07:00 | 25.24910 | 55.35822 | 32 ft | 4 kts | 31° |
| 2026-05-05 07:00 | 25.24887 | 55.35807 | 32 ft | 4 kts | 31° |
| 2026-05-05 07:01 | 25.24870 | 55.35797 | 32 ft | 4 kts | 12° |
| 2026-05-05 07:01 | 25.24852 | 55.35799 | 32 ft | 4 kts | 332° |
| 2026-05-05 07:01 | 25.24836 | 55.35816 | 32 ft | 3 kts | 302° |
| 2026-05-05 07:01 | 25.24823 | 55.35840 | 32 ft | 4 kts | 302° |
| 2026-05-05 07:02 | 25.24816 | 55.35853 | 32 ft | 2 kts | 302° |
| 2026-05-05 07:05 | 25.24818 | 55.35848 | 32 ft | 3 kts | 301° |
| 2026-05-05 07:05 | 25.24834 | 55.35802 | 32 ft | 10 kts | 279° |
| 2026-05-05 07:05 | 25.24842 | 55.35718 | 29 ft | 12 kts | 279° |
| 2026-05-05 07:06 | 25.24872 | 55.35625 | 30 ft | 15 kts | 301° |
| 2026-05-05 07:06 | 25.24932 | 55.35516 | 29 ft | 18 kts | 303° |
| 2026-05-05 07:06 | 25.25000 | 55.35400 | 30 ft | 18 kts | 302° |
| 2026-05-05 07:06 | 25.25068 | 55.35282 | 29 ft | 18 kts | 305° |
| 2026-05-05 07:07 | 25.25141 | 55.35170 | 31 ft | 18 kts | 303° |
| 2026-05-05 07:07 | 25.25208 | 55.35054 | 29 ft | 18 kts | 302° |
| 2026-05-05 07:07 | 25.25284 | 55.34950 | 31 ft | 17 kts | 330° |
| 2026-05-05 07:07 | 25.25400 | 55.34907 | 28 ft | 18 kts | 347° |
| 2026-05-05 07:08 | 25.25517 | 55.34930 | 30 ft | 18 kts | 31° |
| 2026-05-05 07:08 | 25.25628 | 55.35007 | 30 ft | 19 kts | 33° |
| 2026-05-05 07:08 | 25.25714 | 55.35067 | 29 ft | 13 kts | 35° |
| 2026-05-05 07:08 | 25.25748 | 55.35154 | 26 ft | 14 kts | 84° |
| 2026-05-05 07:09 | 25.25802 | 55.35239 | 29 ft | 15 kts | 29° |
| 2026-05-05 07:09 | 25.25899 | 55.35301 | 26 ft | 17 kts | 31° |
| 2026-05-05 07:09 | 25.25988 | 55.35392 | 26 ft | 18 kts | 60° |
| 2026-05-05 07:09 | 25.25999 | 55.35531 | 27 ft | 19 kts | 112° |
| 2026-05-05 07:10 | 25.25971 | 55.35587 | 27 ft | 20 kts | 120° |
| 2026-05-05 07:10 | 25.25895 | 55.35725 | 27 ft | 22 kts | 122° |
| 2026-05-05 07:10 | 25.25812 | 55.35870 | 27 ft | 23 kts | 122° |
| 2026-05-05 07:10 | 25.25726 | 55.36023 | 27 ft | 24 kts | 122° |
| 2026-05-05 07:11 | 25.25667 | 55.36128 | 28 ft | 24 kts | 122° |
| 2026-05-05 07:11 | 25.25575 | 55.36289 | 27 ft | 25 kts | 122° |
| 2026-05-05 07:11 | 25.25481 | 55.36455 | 27 ft | 26 kts | 122° |
| 2026-05-05 07:11 | 25.25386 | 55.36625 | 26 ft | 26 kts | 121° |
| 2026-05-05 07:12 | 25.25291 | 55.36798 | 27 ft | 26 kts | 121° |
| 2026-05-05 07:12 | 25.25194 | 55.36969 | 27 ft | 26 kts | 122° |
| 2026-05-05 07:12 | 25.25098 | 55.37139 | 28 ft | 26 kts | 122° |
| 2026-05-05 07:12 | 25.25001 | 55.37309 | 28 ft | 26 kts | 122° |
| 2026-05-05 07:13 | 25.24905 | 55.37480 | 28 ft | 26 kts | 122° |
| 2026-05-05 07:13 | 25.24810 | 55.37653 | 28 ft | 26 kts | 121° |
| 2026-05-05 07:13 | 25.24714 | 55.37827 | 27 ft | 27 kts | 121° |
| 2026-05-05 07:13 | 25.24631 | 55.37978 | 28 ft | 14 kts | 118° |
| 2026-05-05 07:14 | 25.24643 | 55.38057 | 28 ft | 11 kts | 33° |
| 2026-05-05 07:14 | 25.24710 | 55.38102 | 31 ft | 12 kts | 30° |
| 2026-05-05 07:14 | 25.24769 | 55.38094 | 31 ft | 8 kts | 301° |
| 2026-05-05 07:14 | 25.24776 | 55.38080 | 31 ft | 0 kts | 302° |
| 2026-05-05 07:15 | 25.24816 | 55.38009 | 30 ft | 35 kts | 301° |
| 2026-05-05 07:15 | 25.25076 | 55.37539 | 32 ft | 104 kts | 301° |
| 2026-05-05 07:15 | 25.25549 | 55.36688 | 29 ft | 152 kts | 301° |
| 2026-05-05 07:15 | 25.26149 | 55.35608 | 105 ft | 173 kts | 301° |
| 2026-05-05 07:16 | 25.26772 | 55.34506 | 571 ft | 169 kts | 302° |
| 2026-05-05 07:16 | 25.27291 | 55.33589 | 807 ft | 174 kts | 302° |
| 2026-05-05 07:16 | 25.27954 | 55.32415 | 1034 ft | 186 kts | 301° |
| 2026-05-05 07:16 | 25.28647 | 55.31156 | 1196 ft | 199 kts | 301° |
| 2026-05-05 07:17 | 25.29264 | 55.29775 | 1504 ft | 203 kts | 280° |
| 2026-05-05 07:17 | 25.29128 | 55.28262 | 1906 ft | 198 kts | 243° |
| 2026-05-05 07:17 | 25.28499 | 55.26880 | 2113 ft | 208 kts | 241° |
| 2026-05-05 07:17 | 25.27852 | 55.25438 | 2328 ft | 214 kts | 242° |
| 2026-05-05 07:18 | 25.27209 | 55.23953 | 2608 ft | 214 kts | 243° |
| 2026-05-05 07:18 | 25.26573 | 55.22461 | 2882 ft | 215 kts | 243° |
| 2026-05-05 07:18 | 25.25937 | 55.20961 | 3138 ft | 217 kts | 243° |
| 2026-05-05 07:18 | 25.25294 | 55.19446 | 3447 ft | 215 kts | 244° |
| 2026-05-05 07:19 | 25.24613 | 55.17996 | 3828 ft | 209 kts | 231° |
| 2026-05-05 07:19 | 25.23512 | 55.17011 | 4233 ft | 203 kts | 202° |
| 2026-05-05 07:19 | 25.22164 | 55.16698 | 4614 ft | 199 kts | 176° |
| 2026-05-05 07:19 | 25.20738 | 55.16826 | 4746 ft | 211 kts | 174° |
| 2026-05-05 07:20 | 25.19266 | 55.17125 | 4816 ft | 220 kts | 154° |
| 2026-05-05 07:20 | 25.18035 | 55.18140 | 4910 ft | 225 kts | 126° |
| 2026-05-05 07:20 | 25.17268 | 55.19637 | 4965 ft | 230 kts | 114° |
| 2026-05-05 07:20 | 25.16529 | 55.21235 | 5014 ft | 236 kts | 116° |
| 2026-05-05 07:21 | 25.15733 | 55.22902 | 5103 ft | 256 kts | 116° |
| 2026-05-05 07:21 | 25.14863 | 55.24708 | 5274 ft | 276 kts | 116° |
| 2026-05-05 07:21 | 25.13948 | 55.26603 | 5789 ft | 282 kts | 116° |
| 2026-05-05 07:21 | 25.13035 | 55.28489 | 6610 ft | 275 kts | 117° |
| 2026-05-05 07:22 | 25.12126 | 55.30371 | 7165 ft | 280 kts | 116° |
| 2026-05-05 07:22 | 25.11206 | 55.32281 | 7769 ft | 282 kts | 116° |
| 2026-05-05 07:22 | 25.10330 | 55.34223 | 8378 ft | 284 kts | 112° |
| 2026-05-05 07:22 | 25.09527 | 55.36199 | 8984 ft | 287 kts | 112° |
| 2026-05-05 07:23 | 25.08700 | 55.38217 | 9625 ft | 289 kts | 113° |
| 2026-05-05 07:23 | 25.07861 | 55.40254 | 10179 ft | 293 kts | 113° |
| 2026-05-05 07:23 | 25.07008 | 55.42322 | 10684 ft | 299 kts | 113° |
| 2026-05-05 07:23 | 25.06154 | 55.44491 | 10862 ft | 317 kts | 112° |
| 2026-05-05 07:24 | 25.05278 | 55.46796 | 11004 ft | 334 kts | 112° |
| 2026-05-05 07:24 | 25.04360 | 55.49215 | 11196 ft | 349 kts | 112° |
| 2026-05-05 07:24 | 25.03409 | 55.51704 | 11651 ft | 354 kts | 112° |
| 2026-05-05 07:24 | 25.02435 | 55.54238 | 12077 ft | 361 kts | 112° |
| 2026-05-05 07:25 | 25.01312 | 55.56694 | 12596 ft | 364 kts | 121° |
| 2026-05-05 07:25 | 24.99985 | 55.59099 | 13081 ft | 369 kts | 121° |
| 2026-05-05 07:25 | 24.98656 | 55.61545 | 13623 ft | 372 kts | 121° |
| 2026-05-05 07:25 | 24.97328 | 55.64006 | 14110 ft | 375 kts | 121° |
| 2026-05-05 07:26 | 24.95990 | 55.66487 | 14635 ft | 377 kts | 121° |
| 2026-05-05 07:26 | 24.94644 | 55.68981 | 15120 ft | 380 kts | 121° |
| 2026-05-05 07:26 | 24.93167 | 55.71404 | 15619 ft | 383 kts | 127° |
| 2026-05-05 07:26 | 24.91577 | 55.73774 | 16087 ft | 386 kts | 127° |
| 2026-05-05 07:27 | 24.89981 | 55.76177 | 16595 ft | 389 kts | 127° |
| 2026-05-05 07:27 | 24.88383 | 55.78590 | 17097 ft | 392 kts | 127° |
| 2026-05-05 07:27 | 24.86770 | 55.81026 | 17519 ft | 396 kts | 127° |
| 2026-05-05 07:27 | 24.85137 | 55.83489 | 18024 ft | 399 kts | 127° |
| 2026-05-05 07:28 | 24.83513 | 55.85936 | 18419 ft | 402 kts | 127° |
| 2026-05-05 07:28 | 24.81846 | 55.88411 | 18880 ft | 403 kts | 128° |
| 2026-05-05 07:28 | 24.80164 | 55.90885 | 19314 ft | 405 kts | 128° |
| 2026-05-05 07:28 | 24.78366 | 55.93291 | 19678 ft | 408 kts | 131° |
| 2026-05-05 07:29 | 24.76522 | 55.95681 | 20102 ft | 410 kts | 131° |
| 2026-05-05 07:29 | 24.74665 | 55.98080 | 20506 ft | 413 kts | 131° |
| 2026-05-05 07:29 | 24.72796 | 56.00499 | 20925 ft | 415 kts | 131° |
| 2026-05-05 07:29 | 24.70923 | 56.02926 | 21307 ft | 418 kts | 131° |
| 2026-05-05 07:30 | 24.69040 | 56.05367 | 21718 ft | 420 kts | 131° |
| 2026-05-05 07:30 | 24.65236 | 56.10297 | 22543 ft | 423 kts | 131° |
| 2026-05-05 07:30 | 24.63328 | 56.12770 | 22939 ft | 426 kts | 131° |
| 2026-05-05 07:31 | 24.61406 | 56.15259 | 23317 ft | 429 kts | 131° |
| 2026-05-05 07:31 | 24.59489 | 56.17738 | 23639 ft | 431 kts | 131° |
| 2026-05-05 07:31 | 24.52638 | 56.26594 | 24677 ft | 441 kts | 132° |
| 2026-05-05 07:31 | 24.44602 | 56.36962 | 25765 ft | 452 kts | 132° |
| 2026-05-05 07:32 | 24.36328 | 56.47612 | 26960 ft | 463 kts | 132° |
| 2026-05-05 07:32 | 24.27835 | 56.58517 | 28242 ft | 476 kts | 133° |
| 2026-05-05 07:32 | 24.19124 | 56.69679 | 29672 ft | 489 kts | 133° |
| 2026-05-05 07:32 | 24.10164 | 56.81133 | 31029 ft | 501 kts | 133° |
| 2026-05-05 07:33 | 23.99417 | 56.90484 | 32276 ft | 497 kts | 166° |
| 2026-05-05 07:33 | 23.85855 | 56.93821 | 33599 ft | 505 kts | 171° |
| 2026-05-05 07:33 | 23.72090 | 56.97488 | 34925 ft | 511 kts | 170° |
| 2026-05-05 07:33 | 23.58394 | 57.01157 | 36746 ft | 503 kts | 171° |
| 2026-05-05 07:34 | 23.44888 | 57.04766 | 37890 ft | 497 kts | 171° |
| 2026-05-05 07:34 | 23.31309 | 57.05216 | 37880 ft | 485 kts | 195° |
| 2026-05-05 07:34 | 23.04986 | 56.99013 | 37887 ft | 484 kts | 196° |
| 2026-05-05 07:35 | 22.80690 | 56.88612 | 37862 ft | 468 kts | 231° |
| 2026-05-05 07:35 | 22.74260 | 56.76644 | 37853 ft | 465 kts | 243° |
| 2026-05-05 07:35 | 22.68172 | 56.64059 | 37845 ft | 465 kts | 244° |
| 2026-05-05 07:36 | 22.56227 | 56.39346 | 37823 ft | 467 kts | 243° |
| 2026-05-05 07:36 | 22.44131 | 56.14406 | 37832 ft | 468 kts | 243° |
| 2026-05-05 07:37 | 22.31967 | 55.89514 | 37813 ft | 467 kts | 243° |
| 2026-05-05 07:37 | 22.19769 | 55.64699 | 37806 ft | 467 kts | 243° |
| 2026-05-05 07:38 | 22.15407 | 55.51602 | 37809 ft | 466 kts | 261° |
| 2026-05-05 07:38 | 22.14171 | 55.37689 | 37809 ft | 466 kts | 264° |
| 2026-05-05 07:38 | 22.11845 | 55.09789 | 37808 ft | 466 kts | 264° |
| 2026-05-05 07:39 | 22.09484 | 54.81951 | 37799 ft | 466 kts | 264° |
| 2026-05-05 07:39 | 22.07089 | 54.54258 | 37801 ft | 466 kts | 264° |
| 2026-05-05 07:40 | 22.04633 | 54.26399 | 37793 ft | 466 kts | 264° |
| 2026-05-05 07:40 | 22.02122 | 53.98481 | 37805 ft | 467 kts | 264° |
| 2026-05-05 07:41 | 21.99571 | 53.70648 | 37803 ft | 466 kts | 263° |
| 2026-05-05 07:41 | 21.96995 | 53.43048 | 37789 ft | 465 kts | 263° |
| 2026-05-05 07:42 | 21.94364 | 53.15383 | 37799 ft | 465 kts | 263° |
| 2026-05-05 07:42 | 21.91680 | 52.87657 | 37800 ft | 466 kts | 263° |
| 2026-05-05 07:43 | 21.91969 | 52.59869 | 37798 ft | 469 kts | 279° |
| 2026-05-05 07:43 | 21.96994 | 52.32370 | 37797 ft | 465 kts | 279° |
| 2026-05-05 07:44 | 22.01928 | 52.05192 | 37796 ft | 465 kts | 279° |
| 2026-05-05 07:44 | 22.06848 | 51.77820 | 37796 ft | 465 kts | 278° |
| 2026-05-05 07:45 | 22.11727 | 51.50399 | 37799 ft | 465 kts | 278° |
| 2026-05-05 07:45 | 22.16556 | 51.22991 | 37803 ft | 464 kts | 278° |
| 2026-05-05 07:46 | 22.21327 | 50.95630 | 37798 ft | 464 kts | 278° |
| 2026-05-05 07:46 | 22.26050 | 50.68268 | 37802 ft | 463 kts | 278° |
| 2026-05-05 07:47 | 22.30686 | 50.41120 | 37796 ft | 463 kts | 278° |
| 2026-05-05 07:47 | 22.35315 | 50.13734 | 37796 ft | 464 kts | 278° |
| 2026-05-05 07:48 | 22.39918 | 49.86211 | 37794 ft | 466 kts | 277° |
| 2026-05-05 07:48 | 22.44494 | 49.58549 | 37804 ft | 468 kts | 277° |
| 2026-05-05 07:49 | 22.49037 | 49.30783 | 37798 ft | 468 kts | 277° |
| 2026-05-05 07:49 | 22.53521 | 49.03068 | 37800 ft | 466 kts | 277° |
| 2026-05-05 07:50 | 22.57909 | 48.75637 | 37790 ft | 465 kts | 277° |
| 2026-05-05 07:50 | 22.62264 | 48.48103 | 37801 ft | 462 kts | 277° |
| 2026-05-05 07:51 | 22.66560 | 48.20640 | 37827 ft | 462 kts | 276° |
| 2026-05-05 07:51 | 22.70045 | 47.93134 | 37818 ft | 459 kts | 272° |
| 2026-05-05 07:52 | 22.72339 | 47.65746 | 37827 ft | 460 kts | 272° |
| 2026-05-05 07:52 | 22.74578 | 47.38211 | 37849 ft | 457 kts | 272° |
| 2026-05-05 07:53 | 22.76769 | 47.10738 | 37863 ft | 457 kts | 272° |
| 2026-05-05 07:53 | 22.78926 | 46.83325 | 37872 ft | 455 kts | 271° |
| 2026-05-05 07:54 | 22.81027 | 46.55999 | 37881 ft | 455 kts | 271° |
| 2026-05-05 07:54 | 22.83073 | 46.28688 | 37894 ft | 453 kts | 271° |
| 2026-05-05 07:55 | 22.85061 | 46.01494 | 37874 ft | 452 kts | 271° |
| 2026-05-05 07:55 | 22.86990 | 45.74464 | 37865 ft | 452 kts | 271° |
| 2026-05-05 07:56 | 22.88881 | 45.47301 | 37854 ft | 452 kts | 271° |
| 2026-05-05 07:56 | 22.90723 | 45.20168 | 37874 ft | 452 kts | 270° |
| 2026-05-05 07:57 | 22.92519 | 44.92989 | 37871 ft | 452 kts | 270° |
| 2026-05-05 07:57 | 22.94779 | 44.65755 | 37892 ft | 459 kts | 279° |
| 2026-05-05 07:58 | 23.02764 | 44.39277 | 37912 ft | 461 kts | 283° |
| 2026-05-05 07:58 | 23.10788 | 44.13104 | 37901 ft | 457 kts | 283° |
| 2026-05-05 07:59 | 23.18760 | 43.86918 | 37923 ft | 455 kts | 283° |
| 2026-05-05 07:59 | 23.26656 | 43.60820 | 37957 ft | 454 kts | 282° |
| 2026-05-05 08:00 | 23.34479 | 43.34787 | 38002 ft | 450 kts | 282° |
| 2026-05-05 08:00 | 23.40903 | 43.13282 | 38008 ft | 447 kts | 282° |
| 2026-05-05 08:01 | 23.48508 | 42.87605 | 38000 ft | 444 kts | 282° |
| 2026-05-05 08:01 | 23.57278 | 42.57825 | 38010 ft | 444 kts | 281° |
| 2026-05-05 08:02 | 23.63519 | 42.36513 | 38027 ft | 443 kts | 281° |
| 2026-05-05 08:02 | 23.70943 | 42.10941 | 38027 ft | 440 kts | 281° |
| 2026-05-05 08:03 | 23.78306 | 41.85445 | 38009 ft | 438 kts | 281° |
| 2026-05-05 08:03 | 23.85608 | 41.60023 | 38003 ft | 438 kts | 281° |
| 2026-05-05 08:04 | 23.92845 | 41.34549 | 38015 ft | 438 kts | 281° |
| 2026-05-05 08:04 | 23.99992 | 41.09294 | 38002 ft | 437 kts | 280° |
| 2026-05-05 08:05 | 24.07113 | 40.83952 | 37989 ft | 434 kts | 281° |
| 2026-05-05 08:05 | 24.14147 | 40.58750 | 37965 ft | 432 kts | 280° |
| 2026-05-05 08:06 | 24.18590 | 40.46435 | 38001 ft | 443 kts | 291° |
| 2026-05-05 08:06 | 24.24321 | 40.34495 | 37974 ft | 442 kts | 290° |
| 2026-05-05 08:06 | 24.35704 | 40.10660 | 37964 ft | 439 kts | 290° |
| 2026-05-05 08:07 | 24.47008 | 39.86876 | 37981 ft | 440 kts | 290° |
| 2026-05-05 08:07 | 24.61626 | 39.65044 | 37975 ft | 472 kts | 315° |
| 2026-05-05 08:08 | 24.82661 | 39.48227 | 37959 ft | 469 kts | 314° |
| 2026-05-05 08:08 | 25.03743 | 39.31297 | 37974 ft | 468 kts | 314° |
| 2026-05-05 08:09 | 25.23705 | 39.13383 | 37967 ft | 448 kts | 300° |
| 2026-05-05 08:09 | 25.37326 | 38.90586 | 37979 ft | 445 kts | 295° |
| 2026-05-05 08:10 | 25.50739 | 38.67544 | 37969 ft | 445 kts | 295° |
| 2026-05-05 08:10 | 25.64103 | 38.44474 | 37956 ft | 444 kts | 294° |
| 2026-05-05 08:11 | 25.77339 | 38.21512 | 37953 ft | 444 kts | 294° |
| 2026-05-05 08:11 | 25.90585 | 37.98418 | 37972 ft | 440 kts | 294° |
| 2026-05-05 08:12 | 26.01316 | 37.74643 | 37989 ft | 420 kts | 275° |
| 2026-05-05 08:12 | 26.04800 | 37.49231 | 37960 ft | 416 kts | 273° |
| 2026-05-05 08:13 | 26.08209 | 37.23660 | 37996 ft | 419 kts | 273° |
| 2026-05-05 08:13 | 26.09445 | 37.14330 | 37800 ft | 419 kts | 274° |
| 2026-05-05 08:14 | 26.09868 | 37.11165 | 38007 ft | 414 kts | 274° |
| 2026-05-05 08:14 | 26.10288 | 37.07970 | 37981 ft | 417 kts | 273° |
| 2026-05-05 08:14 | 26.11125 | 37.01566 | 37958 ft | 418 kts | 273° |
| 2026-05-05 08:15 | 26.11955 | 36.95214 | 37964 ft | 417 kts | 273° |
| 2026-05-05 08:15 | 26.12788 | 36.88819 | 37939 ft | 417 kts | 273° |
| 2026-05-05 08:16 | 26.13621 | 36.82399 | 37979 ft | 420 kts | 273° |
| 2026-05-05 08:16 | 26.14457 | 36.75936 | 37996 ft | 422 kts | 273° |
| 2026-05-05 08:17 | 26.15292 | 36.69455 | 38002 ft | 423 kts | 273° |
| 2026-05-05 08:17 | 26.16119 | 36.63017 | 38002 ft | 423 kts | 273° |
| 2026-05-05 08:18 | 26.16948 | 36.56549 | 37994 ft | 422 kts | 274° |
| 2026-05-05 08:18 | 26.18612 | 36.50225 | 37987 ft | 432 kts | 288° |
| 2026-05-05 08:19 | 26.21821 | 36.44442 | 37979 ft | 447 kts | 301° |
| 2026-05-05 08:19 | 26.26157 | 36.39367 | 37980 ft | 451 kts | 305° |
| 2026-05-05 08:20 | 26.30516 | 36.34341 | 37970 ft | 451 kts | 305° |
| 2026-05-05 08:20 | 26.34864 | 36.29318 | 37971 ft | 450 kts | 305° |
| 2026-05-05 08:21 | 26.39175 | 36.24337 | 37984 ft | 449 kts | 305° |
| 2026-05-05 08:21 | 26.43510 | 36.19325 | 37971 ft | 448 kts | 305° |
| 2026-05-05 08:22 | 26.47830 | 36.14323 | 37965 ft | 447 kts | 305° |
| 2026-05-05 08:22 | 26.52139 | 36.09329 | 37958 ft | 446 kts | 305° |
| 2026-05-05 08:23 | 26.56419 | 36.04362 | 37958 ft | 445 kts | 305° |
| 2026-05-05 08:23 | 26.60714 | 35.99373 | 37954 ft | 445 kts | 305° |
| 2026-05-05 08:24 | 26.64999 | 35.94389 | 37955 ft | 445 kts | 305° |
| 2026-05-05 08:24 | 26.69293 | 35.89388 | 37980 ft | 445 kts | 305° |
| 2026-05-05 08:25 | 26.73581 | 35.84391 | 37981 ft | 444 kts | 305° |
| 2026-05-05 08:25 | 26.77857 | 35.79400 | 37977 ft | 444 kts | 305° |
| 2026-05-05 08:26 | 26.82091 | 35.74453 | 37990 ft | 444 kts | 305° |
| 2026-05-05 08:26 | 26.86394 | 35.69421 | 37994 ft | 443 kts | 305° |
| 2026-05-05 08:27 | 26.90627 | 35.64465 | 37998 ft | 443 kts | 305° |
| 2026-05-05 08:27 | 26.94884 | 35.59474 | 37996 ft | 442 kts | 305° |
| 2026-05-05 08:28 | 26.99131 | 35.54490 | 37976 ft | 442 kts | 305° |
| 2026-05-05 08:28 | 27.03379 | 35.49498 | 38040 ft | 442 kts | 305° |
| 2026-05-05 08:29 | 27.07635 | 35.44490 | 38010 ft | 442 kts | 305° |
| 2026-05-05 08:30 | 27.14001 | 35.36992 | 38002 ft | 441 kts | 305° |
| 2026-05-05 08:30 | 27.18207 | 35.32030 | 37998 ft | 440 kts | 305° |
| 2026-05-05 08:31 | 27.22430 | 35.27041 | 37994 ft | 440 kts | 305° |
| 2026-05-05 08:31 | 27.26636 | 35.22066 | 37989 ft | 439 kts | 305° |
| 2026-05-05 08:32 | 27.30848 | 35.17078 | 37988 ft | 439 kts | 305° |
| 2026-05-05 08:32 | 27.35058 | 35.12088 | 37990 ft | 439 kts | 305° |
| 2026-05-05 08:33 | 27.39267 | 35.07092 | 37992 ft | 440 kts | 305° |
| 2026-05-05 08:33 | 27.43478 | 35.02087 | 38006 ft | 441 kts | 305° |
| 2026-05-05 08:34 | 27.47692 | 34.97074 | 38001 ft | 441 kts | 305° |
| 2026-05-05 08:34 | 27.51906 | 34.92124 | 38001 ft | 444 kts | 308° |
| 2026-05-05 08:35 | 27.56432 | 34.87372 | 38001 ft | 444 kts | 308° |
| 2026-05-05 08:35 | 27.60946 | 34.82604 | 38002 ft | 444 kts | 308° |
| 2026-05-05 08:36 | 27.65453 | 34.77834 | 37999 ft | 444 kts | 308° |
| 2026-05-05 08:36 | 27.69960 | 34.73061 | 38019 ft | 444 kts | 308° |
| 2026-05-05 08:37 | 27.74456 | 34.68294 | 38005 ft | 444 kts | 308° |
| 2026-05-05 08:37 | 27.78955 | 34.63519 | 38017 ft | 443 kts | 308° |
| 2026-05-05 08:38 | 27.83447 | 34.58746 | 38018 ft | 442 kts | 308° |
| 2026-05-05 08:38 | 27.87900 | 34.54007 | 38016 ft | 442 kts | 308° |
| 2026-05-05 08:39 | 27.92368 | 34.49247 | 38013 ft | 441 kts | 308° |
| 2026-05-05 08:39 | 27.96829 | 34.44491 | 38019 ft | 441 kts | 308° |
| 2026-05-05 08:40 | 28.01088 | 34.39567 | 38014 ft | 433 kts | 302° |
| 2026-05-05 08:40 | 28.04885 | 34.34289 | 38012 ft | 432 kts | 302° |
| 2026-05-05 08:41 | 28.08704 | 34.29022 | 38011 ft | 432 kts | 302° |
| 2026-05-05 08:41 | 28.12518 | 34.23747 | 38012 ft | 433 kts | 302° |
| 2026-05-05 08:42 | 28.16302 | 34.18498 | 38037 ft | 433 kts | 302° |
| 2026-05-05 08:42 | 28.20112 | 34.13209 | 38018 ft | 432 kts | 301° |
| 2026-05-05 08:43 | 28.23909 | 34.07936 | 38026 ft | 431 kts | 302° |
| 2026-05-05 08:43 | 28.27690 | 34.02665 | 38001 ft | 429 kts | 301° |
| 2026-05-05 08:44 | 28.31453 | 33.97421 | 37993 ft | 428 kts | 301° |
| 2026-05-05 08:44 | 28.35211 | 33.92176 | 38025 ft | 428 kts | 302° |
| 2026-05-05 08:45 | 28.38943 | 33.86962 | 38040 ft | 429 kts | 302° |
| 2026-05-05 08:45 | 28.42706 | 33.81697 | 38048 ft | 429 kts | 301° |
| 2026-05-05 08:46 | 28.46462 | 33.76437 | 38042 ft | 428 kts | 301° |
| 2026-05-05 08:46 | 28.50210 | 33.71182 | 38025 ft | 427 kts | 301° |
| 2026-05-05 08:47 | 28.53945 | 33.65938 | 38096 ft | 426 kts | 301° |
| 2026-05-05 08:47 | 28.57669 | 33.60708 | 38088 ft | 428 kts | 302° |
| 2026-05-05 08:48 | 28.61433 | 33.55434 | 38080 ft | 429 kts | 302° |
| 2026-05-05 08:48 | 28.65190 | 33.50152 | 38076 ft | 427 kts | 301° |
| 2026-05-05 08:49 | 28.68890 | 33.44929 | 38078 ft | 426 kts | 301° |
| 2026-05-05 08:49 | 28.72611 | 33.39672 | 38076 ft | 425 kts | 301° |
| 2026-05-05 08:50 | 28.76320 | 33.34429 | 38071 ft | 424 kts | 301° |
| 2026-05-05 08:50 | 28.80020 | 33.29191 | 38061 ft | 424 kts | 301° |
| 2026-05-05 08:51 | 28.83711 | 33.23957 | 38067 ft | 423 kts | 301° |
| 2026-05-05 08:51 | 28.87393 | 33.18731 | 38063 ft | 422 kts | 301° |
| 2026-05-05 08:52 | 28.90447 | 33.14391 | 38054 ft | 422 kts | 301° |
| 2026-05-05 08:52 | 28.94110 | 33.09180 | 38051 ft | 421 kts | 301° |